createdAt,value
2019-02-23T00:00:35.258Z,97489.59
2019-02-23T00:01:38.690Z,97496.36
2019-02-23T00:02:42.118Z,97486.23
2019-02-23T00:03:45.621Z,97486.70
2019-02-23T00:04:49.097Z,97482.42
2019-02-23T00:05:52.546Z,97485.85
2019-02-23T00:06:55.970Z,97483.72
2019-02-23T00:07:59.397Z,97484.58
2019-02-23T00:09:02.907Z,97489.19
2019-02-23T00:10:07.917Z,97485.55
2019-02-23T00:11:11.432Z,97480.86
2019-02-23T00:12:14.934Z,97485.13
2019-02-23T00:13:18.435Z,97481.56
2019-02-23T00:14:21.934Z,97483.39
2019-02-23T00:15:25.388Z,97476.36
2019-02-23T00:16:28.928Z,97478.60
2019-02-23T00:17:32.414Z,97485.20
2019-02-23T00:18:35.937Z,97481.95
2019-02-23T00:19:39.437Z,97478.09
2019-02-23T00:20:43.060Z,97485.04
2019-02-23T00:21:46.578Z,97481.82
2019-02-23T00:22:50.098Z,97489.20
2019-02-23T00:23:53.543Z,97490.21
2019-02-23T00:24:57.051Z,97494.95
2019-02-23T00:26:00.506Z,97487.33
2019-02-23T00:27:04.078Z,97494.59
2019-02-23T00:28:07.637Z,97490.52
2019-02-23T00:29:11.149Z,97495.59
2019-02-23T00:30:14.727Z,97492.77
2019-02-23T00:31:18.265Z,97486.55
2019-02-23T00:32:21.728Z,97487.81
2019-02-23T00:33:25.235Z,97492.11
2019-02-23T00:34:28.687Z,97486.42
2019-02-23T00:35:32.202Z,97481.00
2019-02-23T00:36:35.652Z,97481.77
2019-02-23T00:37:39.178Z,97474.20
2019-02-23T00:38:42.607Z,97476.04
2019-02-23T00:39:46.044Z,97476.18
2019-02-23T00:40:49.484Z,97476.77
2019-02-23T00:41:52.950Z,97476.47
2019-02-23T00:42:56.481Z,97477.38
2019-02-23T00:43:59.935Z,97480.08
2019-02-23T00:45:03.518Z,97477.25
2019-02-23T00:46:07.030Z,97483.39
2019-02-23T00:47:10.569Z,97480.89
2019-02-23T00:48:14.028Z,97481.12
2019-02-23T00:49:17.474Z,97469.95
2019-02-23T00:50:21.000Z,97484.65
2019-02-23T00:51:24.441Z,97482.70
2019-02-23T00:52:27.905Z,97481.96
2019-02-23T00:53:31.368Z,97486.13
2019-02-23T00:54:34.938Z,97486.13
2019-02-23T00:55:38.362Z,97487.73
2019-02-23T00:56:41.794Z,97491.74
2019-02-23T00:57:45.252Z,97490.52
2019-02-23T00:58:48.699Z,97499.38
2019-02-23T00:59:52.129Z,97493.13
2019-02-23T01:00:55.624Z,97496.59
2019-02-23T01:01:59.055Z,97499.94
2019-02-23T01:03:02.515Z,97498.77
2019-02-23T01:04:06.111Z,97494.98
2019-02-23T01:05:09.726Z,97494.63
2019-02-23T01:06:13.467Z,97496.62
2019-02-23T01:07:17.112Z,97498.27
2019-02-23T01:08:20.528Z,97500.61
2019-02-23T01:09:24.029Z,97502.05
2019-02-23T01:10:27.474Z,97498.27
2019-02-23T01:11:30.910Z,97495.63
2019-02-23T01:12:34.418Z,97495.25
2019-02-23T01:13:37.888Z,97499.08
2019-02-23T01:14:41.428Z,97494.03
2019-02-23T01:15:44.874Z,97494.13
2019-02-23T01:16:48.323Z,97488.59
2019-02-23T01:17:51.764Z,97492.02
2019-02-23T01:18:55.299Z,97491.31
2019-02-23T01:19:59.023Z,97493.63
2019-02-23T01:21:02.637Z,97495.95
2019-02-23T01:22:06.155Z,97492.66
2019-02-23T01:23:09.709Z,97496.22
2019-02-23T01:24:13.255Z,97491.53
2019-02-23T01:25:16.672Z,97501.43
2019-02-23T01:26:20.102Z,97497.52
2019-02-23T01:27:23.625Z,97496.00
2019-02-23T01:28:27.134Z,97501.20
2019-02-23T01:29:30.591Z,97499.75
2019-02-23T01:30:34.051Z,97502.69
2019-02-23T01:31:37.562Z,97504.05
2019-02-23T01:32:40.996Z,97501.82
2019-02-23T01:33:44.491Z,97508.63
2019-02-23T01:34:47.940Z,97500.87
2019-02-23T01:35:51.391Z,97508.19
2019-02-23T01:36:54.824Z,97502.80
2019-02-23T01:37:58.571Z,97502.95
2019-02-23T01:39:02.003Z,97510.23
2019-02-23T01:40:08.382Z,97511.22
2019-02-23T01:41:11.882Z,97514.80
2019-02-23T01:42:15.337Z,97517.56
2019-02-23T01:43:18.784Z,97524.87
2019-02-23T01:44:22.211Z,97525.67
2019-02-23T01:45:25.729Z,97528.05
2019-02-23T01:46:29.240Z,97525.38
2019-02-23T01:47:32.706Z,97531.36
2019-02-23T01:48:36.270Z,97525.51
2019-02-23T01:49:39.704Z,97529.41
2019-02-23T01:50:43.243Z,97529.16
2019-02-23T01:51:46.686Z,97526.03
2019-02-23T01:52:50.189Z,97525.05
2019-02-23T01:53:53.717Z,97525.86
2019-02-23T01:54:57.206Z,97525.05
2019-02-23T01:56:00.734Z,97529.83
2019-02-23T01:57:04.382Z,97527.36
2019-02-23T01:58:07.979Z,97528.83
2019-02-23T01:59:11.423Z,97528.34
2019-02-23T02:00:15.362Z,97522.91
2019-02-23T02:01:19.050Z,97526.91
2019-02-23T02:02:22.566Z,97530.93
2019-02-23T02:03:26.169Z,97527.27
2019-02-23T02:04:29.762Z,97527.45
2019-02-23T02:05:33.203Z,97523.84
2019-02-23T02:06:36.656Z,97523.55
2019-02-23T02:07:40.173Z,97533.70
2019-02-23T02:08:43.774Z,97530.50
2019-02-23T02:09:47.214Z,97529.47
2019-02-23T02:10:50.799Z,97532.70
2019-02-23T02:11:54.317Z,97527.85
2019-02-23T02:12:57.823Z,97530.71
2019-02-23T02:14:01.334Z,97534.58
2019-02-23T02:15:07.437Z,97540.24
2019-02-23T02:16:10.869Z,97533.02
2019-02-23T02:17:14.397Z,97539.15
2019-02-23T02:18:17.857Z,97528.80
2019-02-23T02:19:21.296Z,97534.00
2019-02-23T02:20:24.732Z,97528.92
2019-02-23T02:21:28.164Z,97532.41
2019-02-23T02:22:31.696Z,97529.55
2019-02-23T02:23:35.150Z,97534.78
2019-02-23T02:24:38.650Z,97540.79
2019-02-23T02:25:42.089Z,97537.59
2019-02-23T02:26:45.592Z,97544.03
2019-02-23T02:27:49.043Z,97541.92
2019-02-23T02:28:52.473Z,97545.82
2019-02-23T02:29:55.920Z,97548.91
2019-02-23T02:30:59.368Z,97544.20
2019-02-23T02:32:02.809Z,97545.59
2019-02-23T02:33:06.470Z,97542.09
2019-02-23T02:34:12.057Z,97542.30
2019-02-23T02:35:15.482Z,97544.84
2019-02-23T02:36:18.996Z,97533.28
2019-02-23T02:37:22.433Z,97538.42
2019-02-23T02:38:25.888Z,97536.66
2019-02-23T02:39:29.400Z,97536.30
2019-02-23T02:40:32.910Z,97534.73
2019-02-23T02:41:36.413Z,97540.30
2019-02-23T02:42:40.042Z,97534.27
2019-02-23T02:43:43.525Z,97539.92
2019-02-23T02:44:47.026Z,97534.91
2019-02-23T02:45:50.462Z,97536.38
2019-02-23T02:46:53.976Z,97536.27
2019-02-23T02:47:57.555Z,97540.70
2019-02-23T02:49:01.002Z,97534.78
2019-02-23T02:50:06.197Z,97538.86
2019-02-23T02:51:09.628Z,97539.13
2019-02-23T02:52:13.149Z,97537.20
2019-02-23T02:53:16.596Z,97530.97
2019-02-23T02:54:20.125Z,97528.52
2019-02-23T02:55:23.577Z,97525.69
2019-02-23T02:56:27.103Z,97534.14
2019-02-23T02:57:30.619Z,97532.89
2019-02-23T02:58:34.047Z,97531.87
2019-02-23T02:59:37.509Z,97529.89
2019-02-23T03:00:41.062Z,97528.42
2019-02-23T03:01:44.459Z,97529.25
2019-02-23T03:02:47.974Z,97535.94
2019-02-23T03:03:51.488Z,97532.53
2019-02-23T03:04:54.952Z,97536.16
2019-02-23T03:05:58.417Z,97535.68
2019-02-23T03:07:01.851Z,97527.89
2019-02-23T03:08:05.321Z,97527.74
2019-02-23T03:09:10.671Z,97533.19
2019-02-23T03:10:14.262Z,97532.11
2019-02-23T03:11:17.833Z,97528.73
2019-02-23T03:12:21.227Z,97531.52
2019-02-23T03:13:24.730Z,97527.84
2019-02-23T03:14:28.176Z,97527.84
2019-02-23T03:15:31.686Z,97521.56
2019-02-23T03:16:35.204Z,97521.25
2019-02-23T03:17:38.720Z,97525.14
2019-02-23T03:18:42.164Z,97524.31
2019-02-23T03:19:45.599Z,97522.69
2019-02-23T03:20:49.051Z,97519.02
2019-02-23T03:21:52.578Z,97517.38
2019-02-23T03:22:56.015Z,97517.35
2019-02-23T03:23:59.452Z,97518.36
2019-02-23T03:25:02.885Z,97522.73
2019-02-23T03:26:06.430Z,97518.16
2019-02-23T03:27:09.880Z,97513.45
2019-02-23T03:28:13.313Z,97518.81
2019-02-23T03:29:16.742Z,97524.99
2019-02-23T03:30:20.187Z,97517.53
2019-02-23T03:31:23.664Z,97522.42
2019-02-23T03:32:27.101Z,97526.76
2019-02-23T03:33:30.599Z,97524.86
2019-02-23T03:34:34.024Z,97526.80
2019-02-23T03:35:37.469Z,97528.73
2019-02-23T03:36:40.998Z,97534.75
2019-02-23T03:37:44.437Z,97525.13
2019-02-23T03:38:47.871Z,97530.81
2019-02-23T03:39:51.329Z,97530.09
2019-02-23T03:40:54.826Z,97536.01
2019-02-23T03:41:58.728Z,97537.89
2019-02-23T03:43:02.154Z,97531.64
2019-02-23T03:44:05.669Z,97535.52
2019-02-23T03:45:09.263Z,97535.70
2019-02-23T03:46:12.793Z,97530.02
2019-02-23T03:47:16.256Z,97533.91
2019-02-23T03:48:19.692Z,97536.88
2019-02-23T03:49:23.131Z,97543.48
2019-02-23T03:50:26.567Z,97532.11
2019-02-23T03:51:30.006Z,97532.84
2019-02-23T03:52:33.535Z,97540.33
2019-02-23T03:53:37.035Z,97544.01
2019-02-23T03:54:40.802Z,97539.61
2019-02-23T03:55:44.677Z,97543.84
2019-02-23T03:56:48.180Z,97548.02
2019-02-23T03:57:51.748Z,97549.62
2019-02-23T03:58:55.170Z,97558.92
2019-02-23T03:59:58.736Z,97559.16
2019-02-23T04:01:02.175Z,97554.23
2019-02-23T04:02:05.607Z,97559.44
2019-02-23T04:03:09.056Z,97557.34
2019-02-23T04:04:12.566Z,97555.17
2019-02-23T04:05:16.080Z,97553.08
2019-02-23T04:06:19.518Z,97556.80
2019-02-23T04:07:22.955Z,97558.14
2019-02-23T04:08:26.418Z,97556.84
2019-02-23T04:09:29.984Z,97554.52
2019-02-23T04:10:33.418Z,97555.81
2019-02-23T04:11:36.857Z,97554.58
2019-02-23T04:12:40.280Z,97551.23
2019-02-23T04:13:43.818Z,97549.94
2019-02-23T04:14:47.262Z,97550.39
2019-02-23T04:15:50.721Z,97543.05
2019-02-23T04:16:54.146Z,97547.52
2019-02-23T04:17:57.574Z,97542.38
2019-02-23T04:19:01.028Z,97542.83
2019-02-23T04:20:06.234Z,97535.03
2019-02-23T04:21:09.662Z,97536.08
2019-02-23T04:22:13.075Z,97536.58
2019-02-23T04:23:16.528Z,97543.66
2019-02-23T04:24:19.957Z,97540.41
2019-02-23T04:25:23.389Z,97532.59
2019-02-23T04:26:26.821Z,97524.34
2019-02-23T04:27:30.321Z,97528.02
2019-02-23T04:28:33.750Z,97530.00
2019-02-23T04:29:37.271Z,97526.33
2019-02-23T04:30:40.701Z,97523.53
2019-02-23T04:31:44.138Z,97525.17
2019-02-23T04:32:47.563Z,97521.84
2019-02-23T04:33:51.061Z,97522.36
2019-02-23T04:34:54.510Z,97523.72
2019-02-23T04:35:58.116Z,97522.95
2019-02-23T04:37:01.538Z,97525.45
2019-02-23T04:38:04.968Z,97535.81
2019-02-23T04:39:08.404Z,97535.86
2019-02-23T04:40:11.922Z,97525.25
2019-02-23T04:41:15.347Z,97529.45
2019-02-23T04:42:18.783Z,97525.36
2019-02-23T04:43:22.219Z,97529.70
2019-02-23T04:44:25.656Z,97526.84
2019-02-23T04:45:29.187Z,97525.02
2019-02-23T04:46:32.723Z,97524.80
2019-02-23T04:47:36.153Z,97525.08
2019-02-23T04:48:39.753Z,97521.70
2019-02-23T04:49:44.695Z,97522.98
2019-02-23T04:50:48.141Z,97518.09
2019-02-23T04:51:51.616Z,97514.94
2019-02-23T04:52:55.067Z,97517.52
2019-02-23T04:53:58.586Z,97517.63
2019-02-23T04:55:02.021Z,97508.81
2019-02-23T04:56:05.549Z,97509.14
2019-02-23T04:57:09.000Z,97511.98
2019-02-23T04:58:12.433Z,97504.27
2019-02-23T04:59:15.862Z,97506.47
2019-02-23T05:00:19.446Z,97501.67
2019-02-23T05:01:22.861Z,97495.07
2019-02-23T05:02:26.332Z,97491.98
2019-02-23T05:03:29.763Z,97491.20
2019-02-23T05:04:33.281Z,97494.08
2019-02-23T05:05:36.718Z,97490.23
2019-02-23T05:06:40.171Z,97498.27
2019-02-23T05:07:43.625Z,97503.72
2019-02-23T05:08:47.053Z,97496.47
2019-02-23T05:09:50.554Z,97493.30
2019-02-23T05:10:53.992Z,97490.48
2019-02-23T05:11:57.526Z,97500.09
2019-02-23T05:13:00.970Z,97501.94
2019-02-23T05:14:04.573Z,97501.64
2019-02-23T05:15:10.090Z,97504.27
2019-02-23T05:16:13.495Z,97505.33
2019-02-23T05:17:16.955Z,97510.51
2019-02-23T05:18:20.459Z,97515.69
2019-02-23T05:19:23.896Z,97511.78
2019-02-23T05:20:27.411Z,97514.84
2019-02-23T05:21:30.838Z,97519.00
2019-02-23T05:22:34.424Z,97512.00
2019-02-23T05:23:37.880Z,97519.71
2019-02-23T05:24:41.324Z,97516.19
2019-02-23T05:25:44.918Z,97518.55
2019-02-23T05:26:48.409Z,97517.75
2019-02-23T05:27:51.884Z,97517.99
2019-02-23T05:28:55.318Z,97518.05
2019-02-23T05:29:58.762Z,97521.66
2019-02-23T05:31:02.200Z,97521.66
2019-02-23T05:32:05.639Z,97525.53
2019-02-23T05:33:09.233Z,97520.12
2019-02-23T05:34:12.665Z,97524.52
2019-02-23T05:35:16.184Z,97523.73
2019-02-23T05:36:19.634Z,97531.23
2019-02-23T05:37:23.152Z,97529.93
2019-02-23T05:38:26.663Z,97531.00
2019-02-23T05:39:30.130Z,97534.31
2019-02-23T05:40:33.573Z,97529.92
2019-02-23T05:41:37.081Z,97531.21
2019-02-23T05:42:40.532Z,97537.64
2019-02-23T05:43:44.055Z,97526.98
2019-02-23T05:44:47.510Z,97524.17
2019-02-23T05:45:51.018Z,97525.77
2019-02-23T05:46:54.488Z,97520.59
2019-02-23T05:47:57.903Z,97519.56
2019-02-23T05:49:01.434Z,97514.67
2019-02-23T05:50:07.031Z,97514.89
2019-02-23T05:51:10.492Z,97518.77
2019-02-23T05:52:13.990Z,97524.17
2019-02-23T05:53:17.463Z,97514.84
2019-02-23T05:54:20.866Z,97521.14
2019-02-23T05:55:24.324Z,97515.46
2019-02-23T05:56:27.765Z,97515.19
2019-02-23T05:57:31.237Z,97517.78
2019-02-23T05:58:34.689Z,97514.45
2019-02-23T05:59:38.143Z,97510.56
2019-02-23T06:00:41.617Z,97512.36
2019-02-23T06:01:45.185Z,97514.18
2019-02-23T06:02:48.632Z,97506.68
2019-02-23T06:03:52.132Z,97507.98
2019-02-23T06:04:55.670Z,97503.59
2019-02-23T06:05:59.228Z,97502.02
2019-02-23T06:07:02.782Z,97508.50
2019-02-23T06:08:06.282Z,97507.52
2019-02-23T06:09:09.751Z,97509.88
2019-02-23T06:10:13.367Z,97513.72
2019-02-23T06:11:16.875Z,97526.66
2019-02-23T06:12:20.392Z,97525.09
2019-02-23T06:13:23.828Z,97525.05
2019-02-23T06:14:27.278Z,97522.45
2019-02-23T06:15:30.727Z,97512.92
2019-02-23T06:16:34.284Z,97510.34
2019-02-23T06:17:37.746Z,97510.34
2019-02-23T06:18:41.263Z,97515.52
2019-02-23T06:19:44.773Z,97519.41
2019-02-23T06:20:48.306Z,97520.46
2019-02-23T06:21:54.169Z,97519.41
2019-02-23T06:22:56.988Z,97520.92
2019-02-23T06:24:00.439Z,97521.95
2019-02-23T06:25:04.456Z,97520.37
2019-02-23T06:26:07.914Z,97526.55
2019-02-23T06:27:11.412Z,97529.66
2019-02-23T06:28:14.911Z,97529.19
2019-02-23T06:29:18.373Z,97538.54
2019-02-23T06:30:21.877Z,97537.80
2019-02-23T06:31:25.405Z,97539.36
2019-02-23T06:32:29.041Z,97537.29
2019-02-23T06:33:32.564Z,97542.47
2019-02-23T06:34:35.991Z,97541.92
2019-02-23T06:35:39.444Z,97544.77
2019-02-23T06:36:42.896Z,97543.73
2019-02-23T06:37:46.385Z,97545.05
2019-02-23T06:38:49.827Z,97542.98
2019-02-23T06:39:53.250Z,97535.99
2019-02-23T06:40:56.792Z,97535.98
2019-02-23T06:42:00.424Z,97538.81
2019-02-23T06:43:03.919Z,97534.16
2019-02-23T06:44:07.351Z,97530.27
2019-02-23T06:45:12.429Z,97534.66
2019-02-23T06:46:15.865Z,97528.98
2019-02-23T06:47:19.323Z,97529.25
2019-02-23T06:48:22.751Z,97533.38
2019-02-23T06:49:26.250Z,97530.31
2019-02-23T06:50:29.675Z,97530.31
2019-02-23T06:51:33.123Z,97527.99
2019-02-23T06:52:36.641Z,97539.87
2019-02-23T06:53:40.138Z,97528.47
2019-02-23T06:54:43.568Z,97535.48
2019-02-23T06:55:47.008Z,97540.38
2019-02-23T06:56:50.463Z,97538.58
2019-02-23T06:57:53.916Z,97540.89
2019-02-23T06:58:57.353Z,97544.78
2019-02-23T07:00:00.857Z,97544.00
2019-02-23T07:01:04.355Z,97539.84
2019-02-23T07:02:07.900Z,97542.44
2019-02-23T07:03:11.332Z,97537.77
2019-02-23T07:04:14.775Z,97539.32
2019-02-23T07:05:18.342Z,97546.31
2019-02-23T07:06:21.771Z,97538.03
2019-02-23T07:07:25.242Z,97540.89
2019-02-23T07:08:28.702Z,97551.48
2019-02-23T07:09:32.258Z,97546.86
2019-02-23T07:10:35.724Z,97548.94
2019-02-23T07:11:39.225Z,97547.37
2019-02-23T07:12:42.773Z,97557.21
2019-02-23T07:13:46.223Z,97556.70
2019-02-23T07:14:49.693Z,97559.29
2019-02-23T07:15:53.204Z,97554.39
2019-02-23T07:16:56.669Z,97558.78
2019-02-23T07:18:00.686Z,97561.87
2019-02-23T07:19:04.307Z,97553.06
2019-02-23T07:20:09.835Z,97557.21
2019-02-23T07:21:13.348Z,97547.88
2019-02-23T07:22:16.849Z,97553.84
2019-02-23T07:23:20.376Z,97552.78
2019-02-23T07:24:23.816Z,97545.56
2019-02-23T07:25:27.245Z,97548.89
2019-02-23T07:26:30.686Z,97545.76
2019-02-23T07:27:34.123Z,97542.42
2019-02-23T07:28:37.639Z,97540.34
2019-02-23T07:29:41.069Z,97529.70
2019-02-23T07:30:44.530Z,97534.33
2019-02-23T07:31:48.048Z,97527.85
2019-02-23T07:32:51.546Z,97528.37
2019-02-23T07:33:55.035Z,97522.95
2019-02-23T07:34:58.690Z,97524.75
2019-02-23T07:36:02.211Z,97518.83
2019-02-23T07:37:05.766Z,97518.83
2019-02-23T07:38:09.297Z,97519.06
2019-02-23T07:39:12.819Z,97520.86
2019-02-23T07:40:17.281Z,97512.80
2019-02-23T07:41:20.750Z,97513.31
2019-02-23T07:42:24.264Z,97509.22
2019-02-23T07:43:27.814Z,97510.27
2019-02-23T07:44:31.270Z,97505.55
2019-02-23T07:45:34.694Z,97509.66
2019-02-23T07:46:38.857Z,97508.63
2019-02-23T07:47:42.292Z,97508.65
2019-02-23T07:48:45.787Z,97512.53
2019-02-23T07:49:50.056Z,97511.23
2019-02-23T07:50:53.546Z,97508.91
2019-02-23T07:51:57.048Z,97511.75
2019-02-23T07:53:00.610Z,97511.50
2019-02-23T07:54:04.189Z,97521.80
2019-02-23T07:55:08.256Z,97519.18
2019-02-23T07:56:12.338Z,97521.72
2019-02-23T07:57:15.856Z,97528.48
2019-02-23T07:58:19.410Z,97532.38
2019-02-23T07:59:23.037Z,97532.09
2019-02-23T08:00:26.608Z,97535.67
2019-02-23T08:01:30.023Z,97531.20
2019-02-23T08:02:33.526Z,97530.98
2019-02-23T08:03:37.031Z,97537.68
2019-02-23T08:04:40.466Z,97541.27
2019-02-23T08:05:44.045Z,97543.31
2019-02-23T08:06:47.610Z,97537.66
2019-02-23T08:07:50.988Z,97545.75
2019-02-23T08:08:54.426Z,97545.23
2019-02-23T08:09:58.030Z,97559.79
2019-02-23T08:11:01.509Z,97550.73
2019-02-23T08:12:04.956Z,97557.98
2019-02-23T08:13:09.556Z,97558.70
2019-02-23T08:14:13.239Z,97556.40
2019-02-23T08:15:16.717Z,97559.77
2019-02-23T08:16:20.149Z,97549.09
2019-02-23T08:17:23.581Z,97546.72
2019-02-23T08:18:27.016Z,97539.73
2019-02-23T08:19:30.469Z,97543.42
2019-02-23T08:20:33.881Z,97545.73
2019-02-23T08:21:37.447Z,97544.67
2019-02-23T08:22:40.892Z,97534.09
2019-02-23T08:23:44.348Z,97528.41
2019-02-23T08:24:47.744Z,97527.12
2019-02-23T08:25:51.198Z,97527.12
2019-02-23T08:26:54.658Z,97526.52
2019-02-23T08:27:58.133Z,97525.16
2019-02-23T08:29:01.569Z,97521.20
2019-02-23T08:30:08.201Z,97519.91
2019-02-23T08:31:13.419Z,97524.80
2019-02-23T08:32:16.948Z,97535.92
2019-02-23T08:33:20.394Z,97528.64
2019-02-23T08:34:23.827Z,97532.53
2019-02-23T08:35:27.426Z,97536.16
2019-02-23T08:36:30.862Z,97540.02
2019-02-23T08:37:34.317Z,97549.04
2019-02-23T08:38:37.756Z,97550.34
2019-02-23T08:39:41.205Z,97554.76
2019-02-23T08:40:44.713Z,97552.91
2019-02-23T08:41:48.151Z,97563.17
2019-02-23T08:42:51.596Z,97563.45
2019-02-23T08:43:55.068Z,97570.45
2019-02-23T08:44:58.505Z,97575.13
2019-02-23T08:46:01.929Z,97568.67
2019-02-23T08:47:05.444Z,97568.64
2019-02-23T08:48:08.891Z,97566.05
2019-02-23T08:49:15.009Z,97557.25
2019-02-23T08:50:18.587Z,97552.09
2019-02-23T08:51:22.019Z,97551.31
2019-02-23T08:52:25.456Z,97545.09
2019-02-23T08:53:28.901Z,97536.30
2019-02-23T08:54:32.353Z,97543.83
2019-02-23T08:55:35.779Z,97537.54
2019-02-23T08:56:39.204Z,97542.42
2019-02-23T08:57:42.773Z,97546.79
2019-02-23T08:58:46.246Z,97540.48
2019-02-23T08:59:49.842Z,97538.97
2019-02-23T09:00:53.306Z,97527.30
2019-02-23T09:01:56.797Z,97516.89
2019-02-23T09:03:00.518Z,97513.78
2019-02-23T09:04:04.087Z,97525.16
2019-02-23T09:05:09.284Z,97533.91
2019-02-23T09:06:12.698Z,97524.06
2019-02-23T09:07:16.139Z,97524.04
2019-02-23T09:08:19.567Z,97538.19
2019-02-23T09:09:23.115Z,97526.81
2019-02-23T09:10:26.619Z,97528.41
2019-02-23T09:11:30.053Z,97532.80
2019-02-23T09:12:33.475Z,97532.80
2019-02-23T09:13:36.927Z,97524.45
2019-02-23T09:14:40.368Z,97532.71
2019-02-23T09:15:43.811Z,97536.38
2019-02-23T09:16:47.228Z,97546.82
2019-02-23T09:17:50.661Z,97556.67
2019-02-23T09:18:54.090Z,97554.78
2019-02-23T09:19:57.538Z,97554.44
2019-02-23T09:21:00.962Z,97545.78
2019-02-23T09:22:04.392Z,97545.80
2019-02-23T09:23:07.879Z,97544.01
2019-02-23T09:24:11.316Z,97546.02
2019-02-23T09:25:14.902Z,97547.14
2019-02-23T09:26:18.391Z,97533.91
2019-02-23T09:27:21.827Z,97530.24
2019-02-23T09:28:25.264Z,97534.73
2019-02-23T09:29:28.830Z,97533.69
2019-02-23T09:30:32.341Z,97542.33
2019-02-23T09:31:35.784Z,97536.59
2019-02-23T09:32:39.283Z,97533.45
2019-02-23T09:33:42.886Z,97537.33
2019-02-23T09:34:46.358Z,97538.84
2019-02-23T09:35:49.850Z,97531.83
2019-02-23T09:36:53.364Z,97536.50
2019-02-23T09:37:56.777Z,97536.28
2019-02-23T09:39:00.283Z,97544.03
2019-02-23T09:40:04.590Z,97541.39
2019-02-23T09:41:08.163Z,97545.78
2019-02-23T09:42:11.667Z,97555.04
2019-02-23T09:43:17.721Z,97554.66
2019-02-23T09:44:20.338Z,97557.16
2019-02-23T09:45:23.833Z,97556.28
2019-02-23T09:46:27.384Z,97564.26
2019-02-23T09:47:30.892Z,97564.94
2019-02-23T09:48:34.412Z,97562.59
2019-02-23T09:49:37.846Z,97566.62
2019-02-23T09:50:41.337Z,97561.42
2019-02-23T09:51:44.887Z,97562.41
2019-02-23T09:52:48.336Z,97567.23
2019-02-23T09:53:51.872Z,97561.25
2019-02-23T09:54:55.298Z,97576.39
2019-02-23T09:55:58.733Z,97573.24
2019-02-23T09:57:02.446Z,97570.81
2019-02-23T09:58:06.041Z,97568.62
2019-02-23T09:59:09.528Z,97566.67
2019-02-23T10:00:14.621Z,97575.98
2019-02-23T10:01:18.018Z,97573.96
2019-02-23T10:02:21.608Z,97571.16
2019-02-23T10:03:25.065Z,97570.64
2019-02-23T10:04:28.501Z,97571.91
2019-02-23T10:05:31.930Z,97570.55
2019-02-23T10:06:35.597Z,97570.45
2019-02-23T10:07:39.226Z,97560.80
2019-02-23T10:08:42.721Z,97558.27
2019-02-23T10:09:46.312Z,97555.66
2019-02-23T10:10:49.774Z,97545.89
2019-02-23T10:11:53.362Z,97550.79
2019-02-23T10:12:56.935Z,97537.41
2019-02-23T10:14:00.371Z,97537.67
2019-02-23T10:15:04.770Z,97534.44
2019-02-23T10:16:08.166Z,97530.02
2019-02-23T10:17:11.716Z,97518.86
2019-02-23T10:18:15.253Z,97518.46
2019-02-23T10:19:18.693Z,97520.10
2019-02-23T10:20:22.181Z,97522.38
2019-02-23T10:21:25.633Z,97541.34
2019-02-23T10:22:29.087Z,97544.14
2019-02-23T10:23:32.595Z,97549.69
2019-02-23T10:24:36.046Z,97550.18
2019-02-23T10:25:39.622Z,97544.59
2019-02-23T10:26:43.109Z,97551.84
2019-02-23T10:27:46.652Z,97555.85
2019-02-23T10:28:50.198Z,97565.94
2019-02-23T10:29:53.633Z,97564.31
2019-02-23T10:30:57.066Z,97563.95
2019-02-23T10:32:00.566Z,97560.80
2019-02-23T10:33:04.074Z,97560.24
2019-02-23T10:34:07.564Z,97564.11
2019-02-23T10:35:12.456Z,97568.61
2019-02-23T10:36:15.952Z,97572.90
2019-02-23T10:37:19.403Z,97562.61
2019-02-23T10:38:22.974Z,97566.67
2019-02-23T10:39:26.583Z,97573.04
2019-02-23T10:40:30.044Z,97573.45
2019-02-23T10:41:33.477Z,97572.30
2019-02-23T10:42:36.902Z,97570.97
2019-02-23T10:43:40.347Z,97565.16
2019-02-23T10:44:43.797Z,97571.09
2019-02-23T10:45:47.452Z,97568.72
2019-02-23T10:46:50.978Z,97567.34
2019-02-23T10:47:54.404Z,97570.80
2019-02-23T10:48:57.913Z,97573.73
2019-02-23T10:50:01.388Z,97572.47
2019-02-23T10:51:05.103Z,97581.58
2019-02-23T10:52:08.654Z,97578.58
2019-02-23T10:53:12.227Z,97581.67
2019-02-23T10:54:15.766Z,97580.30
2019-02-23T10:55:19.305Z,97577.52
2019-02-23T10:56:22.927Z,97574.98
2019-02-23T10:57:26.499Z,97570.52
2019-02-23T10:58:30.074Z,97559.80
2019-02-23T10:59:33.540Z,97556.85
2019-02-23T11:00:37.330Z,97554.81
2019-02-23T11:01:40.739Z,97550.86
2019-02-23T11:02:44.251Z,97552.56
2019-02-23T11:03:47.818Z,97553.93
2019-02-23T11:04:51.365Z,97550.94
2019-02-23T11:05:54.924Z,97551.94
2019-02-23T11:06:58.419Z,97555.41
2019-02-23T11:08:01.993Z,97555.09
2019-02-23T11:09:08.004Z,97557.25
2019-02-23T11:10:11.676Z,97555.31
2019-02-23T11:11:15.211Z,97561.94
2019-02-23T11:12:18.820Z,97556.69
2019-02-23T11:13:22.294Z,97557.60
2019-02-23T11:14:25.865Z,97557.26
2019-02-23T11:15:29.474Z,97561.77
2019-02-23T11:16:32.921Z,97555.17
2019-02-23T11:17:36.357Z,97548.34
2019-02-23T11:18:39.893Z,97545.34
2019-02-23T11:19:43.315Z,97545.34
2019-02-23T11:20:47.042Z,97546.22
2019-02-23T11:21:50.749Z,97526.48
2019-02-23T11:22:54.244Z,97528.27
2019-02-23T11:23:57.740Z,97517.45
2019-02-23T11:25:01.239Z,97525.66
2019-02-23T11:26:04.844Z,97522.14
2019-02-23T11:27:08.482Z,97520.75
2019-02-23T11:28:11.987Z,97517.35
2019-02-23T11:29:15.493Z,97524.37
2019-02-23T11:30:19.121Z,97515.03
2019-02-23T11:31:22.918Z,97522.17
2019-02-23T11:32:26.420Z,97510.71
2019-02-23T11:33:30.114Z,97515.92
2019-02-23T11:34:34.276Z,97500.73
2019-02-23T11:35:37.842Z,97501.40
2019-02-23T11:36:41.464Z,97497.55
2019-02-23T11:37:45.015Z,97493.52
2019-02-23T11:38:48.602Z,97487.52
2019-02-23T11:39:52.217Z,97483.08
2019-02-23T11:40:55.672Z,97484.96
2019-02-23T11:41:59.226Z,97478.44
2019-02-23T11:43:02.887Z,97474.88
2019-02-23T11:44:06.766Z,97475.34
2019-02-23T11:45:11.429Z,97480.09
2019-02-23T11:46:14.916Z,97465.94
2019-02-23T11:47:18.433Z,97464.73
2019-02-23T11:48:21.949Z,97474.00
2019-02-23T11:49:25.451Z,97472.67
2019-02-23T11:50:28.929Z,97471.94
2019-02-23T11:51:32.429Z,97469.72
2019-02-23T11:52:36.160Z,97471.22
2019-02-23T11:53:39.655Z,97469.59
2019-02-23T11:54:44.789Z,97473.47
2019-02-23T11:55:48.375Z,97459.08
2019-02-23T11:56:51.935Z,97460.09
2019-02-23T11:57:55.408Z,97463.33
2019-02-23T11:58:58.916Z,97467.12
2019-02-23T12:00:03.452Z,97458.14
2019-02-23T12:01:06.942Z,97457.68
2019-02-23T12:02:10.456Z,97453.89
2019-02-23T12:03:14.044Z,97455.59
2019-02-23T12:04:17.517Z,97453.11
2019-02-23T12:05:20.981Z,97458.58
2019-02-23T12:06:24.398Z,97460.05
2019-02-23T12:07:27.902Z,97463.23
2019-02-23T12:08:31.340Z,97465.28
2019-02-23T12:09:34.776Z,97458.16
2019-02-23T12:10:38.342Z,97458.16
2019-02-23T12:11:41.770Z,97453.13
2019-02-23T12:12:45.273Z,97460.43
2019-02-23T12:13:48.792Z,97457.84
2019-02-23T12:14:52.319Z,97458.59
2019-02-23T12:15:55.748Z,97458.96
2019-02-23T12:16:59.175Z,97448.38
2019-02-23T12:18:02.683Z,97443.95
2019-02-23T12:19:06.175Z,97442.68
2019-02-23T12:20:10.982Z,97455.01
2019-02-23T12:21:14.874Z,97447.11
2019-02-23T12:22:18.301Z,97442.34
2019-02-23T12:23:22.090Z,97447.41
2019-02-23T12:24:25.536Z,97459.00
2019-02-23T12:25:29.011Z,97454.91
2019-02-23T12:26:32.521Z,97451.52